Time;durP1;ratioP1;P1;durP2;ratioP2;P2;SDS_P1;SDS_P2;PMS_P1;PMS_P2;Temp;Humidity;BMP_temperature;BMP_pressure;BME280_temperature;BME280_humidity;BME280_pressure;Samples;Min_cycle;Max_cycle;Signal;HPM_P1;HPM_P2
2023/04/09 00:01:40;;;;;;;28.70;15.43;;;;;;;7.38;67.37;100626.07;1786424;78;20985;-62
2023/04/09 00:04:06;;;;;;;31.90;15.50;;;;;;;7.38;67.31;100620.02;1780038;80;21015;-61
2023/04/09 00:06:32;;;;;;;26.82;14.87;;;;;;;7.40;67.41;100621.70;1767286;80;21025;-61
2023/04/09 00:09:03;;;;;;;27.35;15.53;;;;;;;7.39;67.33;100620.01;1786972;80;20928;-61
2023/04/09 00:11:27;;;;;;;29.37;14.95;;;;;;;7.37;67.40;100621.77;1755634;80;21039;-62
2023/04/09 00:14:00;;;;;;;28.85;16.27;;;;;;;7.39;67.46;100620.42;1764801;80;21061;-62
2023/04/09 00:16:21;;;;;;;33.50;17.37;;;;;;;7.36;67.35;100621.34;1760727;80;21032;-61
2023/04/09 00:18:47;;;;;;;26.90;15.10;;;;;;;7.35;67.45;100623.53;1764019;80;21093;-61
2023/04/09 00:21:15;;;;;;;30.37;15.45;;;;;;;7.36;67.58;100626.53;1767648;79;20892;-62
2023/04/09 00:23:42;;;;;;;29.85;16.20;;;;;;;7.36;67.57;100613.55;1767140;80;21108;-62
2023/04/09 00:26:09;;;;;;;27.27;16.13;;;;;;;7.38;67.71;100611.78;1754585;80;20917;-61
2023/04/09 00:28:35;;;;;;;36.20;17.20;;;;;;;7.42;67.76;100613.02;1769455;79;21049;-62
2023/04/09 00:31:02;;;;;;;29.23;15.70;;;;;;;7.45;67.82;100610.35;1781649;80;20950;-62
2023/04/09 00:33:29;;;;;;;31.95;15.85;;;;;;;7.49;67.78;100615.92;1783840;79;21067;-62
2023/04/09 00:35:55;;;;;;;;;;;;;;;7.47;67.59;100613.78;1765583;80;21014;-61
2023/04/09 00:38:21;;;;;;;32.83;16.07;;;;;;;7.40;67.75;100610.47;1760337;79;20202;-61
2023/04/09 00:40:49;;;;;;;42.73;17.75;;;;;;;7.33;67.66;100609.71;1763268;80;21712;-62
2023/04/09 00:43:18;;;;;;;34.73;15.55;;;;;;;7.25;67.68;100611.60;1765515;80;21616;-61
2023/04/09 00:45:44;;;;;;;35.08;15.65;;;;;;;7.19;67.68;100611.73;1761248;79;21438;-61
2023/04/09 00:48:16;;;;;;;29.98;16.50;;;;;;;7.17;67.79;100610.92;1765530;80;20988;-61
2023/04/09 00:50:42;;;;;;;38.05;16.93;;;;;;;7.14;67.81;100610.95;1763864;80;20980;-62
2023/04/09 00:53:09;;;;;;;33.90;16.60;;;;;;;7.13;67.91;100614.44;1786389;78;20909;-62
2023/04/09 00:55:37;;;;;;;35.98;17.17;;;;;;;7.11;67.95;100612.31;1764061;80;20978;-61
2023/04/09 00:58:03;;;;;;;33.38;15.08;;;;;;;7.08;67.91;100616.27;1765153;80;20947;-62
2023/04/09 01:00:30;;;;;;;36.40;15.63;;;;;;;7.04;67.95;100614.62;1765736;80;21452;-61
2023/04/09 01:02:58;;;;;;;32.95;15.50;;;;;;;7.08;68.13;100620.16;1768891;80;21914;-61
2023/04/09 01:05:28;;;;;;;30.90;14.45;;;;;;;7.05;67.90;100608.53;1762728;80;21035;-61
2023/04/09 01:08:09;;;;;;;31.48;15.63;;;;;;;6.98;68.00;100613.45;1765524;80;21002;-61
2023/04/09 01:13:29;;;;;;;30.02;14.93;;;;;;;6.93;68.14;100607.88;1713448;79;21103;-62
2023/04/09 01:15:58;;;;;;;28.50;14.63;;;;;;;6.94;68.31;100603.09;1609134;88;21084;-62
2023/04/09 01:18:51;;;;;;;29.52;15.20;;;;;;;6.99;68.39;100611.25;1610039;88;21109;-61
2023/04/09 01:21:20;;;;;;;29.40;15.03;;;;;;;6.99;68.32;100606.06;1605492;88;20982;-62
2023/04/09 01:24:12;;;;;;;31.65;15.90;;;;;;;6.88;68.29;100607.09;1624531;87;21054;-61
2023/04/09 01:27:00;;;;;;;30.50;15.13;;;;;;;6.86;68.33;100608.89;1664332;84;21563;-62
2023/04/09 01:29:30;;;;;;;34.53;14.55;;;;;;;6.78;68.32;100609.47;1668690;85;21748;-62
2023/04/09 01:31:59;;;;;;;32.17;15.30;;;;;;;6.72;68.27;100610.84;1670111;85;21124;-62
2023/04/09 01:34:28;;;;;;;31.05;14.78;;;;;;;6.69;68.45;100610.89;1661885;85;21014;-62
2023/04/09 01:36:57;;;;;;;31.52;15.43;;;;;;;6.62;68.46;100618.39;1664017;85;21064;-62
2023/04/09 01:39:24;;;;;;;36.68;15.75;;;;;;;6.54;68.49;100608.12;1665395;85;21972;-62
2023/04/09 01:41:51;;;;;;;36.85;15.78;;;;;;;6.52;68.62;100608.59;1659324;85;20986;-62
2023/04/09 01:44:19;;;;;;;31.90;15.95;;;;;;;6.53;68.74;100610.77;1674838;85;21733;-62
2023/04/09 01:46:47;;;;;;;34.58;16.25;;;;;;;6.50;68.87;100609.92;1660883;85;21024;-62
2023/04/09 01:49:14;;;;;;;36.77;15.68;;;;;;;6.49;68.84;100615.97;1662375;85;20991;-62
2023/04/09 01:51:42;;;;;;;36.55;16.93;;;;;;;6.47;68.79;100609.98;1700303;81;21002;-62
2023/04/09 01:54:08;;;;;;;40.63;16.10;;;;;;;6.44;68.81;100615.63;1743938;81;21717;-62
2023/04/09 01:56:43;;;;;;;37.08;15.85;;;;;;;6.42;69.06;100613.08;1742789;81;21539;-62
2023/04/09 01:59:10;;;;;;;33.88;15.40;;;;;;;6.46;68.97;100619.92;1744200;81;20987;-62
2023/04/09 02:01:46;;;;;;;35.05;16.30;;;;;;;6.44;68.88;100613.92;1742123;80;20923;-62
2023/04/09 02:04:18;;;;;;;34.78;14.38;;;;;;;6.46;68.99;100612.14;1737971;81;21102;-62
2023/04/09 02:07:00;;;;;;;33.38;13.65;;;;;;;6.45;68.96;100614.77;1744009;80;21001;-63
2023/04/09 02:09:29;;;;;;;34.25;13.18;;;;;;;6.47;69.09;100598.30;1699262;83;20982;-62
2023/04/09 02:11:59;;;;;;;28.05;13.55;;;;;;;6.48;68.97;100607.78;1681533;84;21012;-62
2023/04/09 02:14:27;;;;;;;35.17;13.22;;;;;;;6.47;69.02;100603.49;1663456;84;21507;-62
2023/04/09 02:17:00;;;;;;;24.92;11.97;;;;;;;6.50;69.10;100600.84;1634343;85;21129;-62
2023/04/09 02:19:46;;;;;;;27.20;13.45;;;;;;;6.54;69.01;100603.38;1649824;85;21010;-62
2023/04/09 02:22:13;;;;;;;30.67;12.90;;;;;;;6.52;68.98;100602.55;1666581;83;21123;-62
2023/04/09 02:24:40;;;;;;;31.25;14.33;;;;;;;6.54;69.18;100605.53;1656186;84;20981;-62
2023/04/09 02:27:07;;;;;;;23.80;12.57;;;;;;;6.58;69.28;100603.32;1654490;85;21032;-62
2023/04/09 02:29:33;;;;;;;29.83;13.03;;;;;;;6.60;69.04;100600.69;1653036;84;20951;-62
2023/04/09 02:31:59;;;;;;;23.75;12.07;;;;;;;6.55;69.16;100602.49;1674289;83;21012;-62
2023/04/09 02:34:26;;;;;;;23.00;11.90;;;;;;;6.60;69.32;100600.69;1672427;83;20963;-62
2023/04/09 02:36:54;;;;;;;25.70;12.85;;;;;;;6.63;69.22;100603.22;1677169;83;21062;-62
2023/04/09 02:39:21;;;;;;;25.30;13.58;;;;;;;6.65;69.26;100606.66;1672569;83;21062;-62
2023/04/09 02:41:47;;;;;;;17.67;10.45;;;;;;;6.66;69.26;100600.57;1671910;83;20945;-62
2023/04/09 02:44:13;;;;;;;22.07;11.22;;;;;;;6.65;69.27;100598.87;1668913;84;20969;-62
2023/04/09 02:46:41;;;;;;;24.75;12.65;;;;;;;6.68;69.37;100604.86;1675684;84;21027;-62
2023/04/09 02:49:07;;;;;;;28.20;11.85;;;;;;;6.69;69.43;100592.31;1666673;84;21534;-62
2023/04/09 02:51:34;;;;;;;23.25;12.05;;;;;;;6.75;69.53;100600.44;1677228;83;21039;-62
2023/04/09 02:54:01;;;;;;;;;;;;;;;6.80;69.47;100595.99;1679636;83;21518;-62
2023/04/09 02:56:28;;;;;;;18.67;11.33;;;;;;;6.81;69.54;100595.12;1665116;84;20145;-62
2023/04/09 02:58:54;;;;;;;25.80;11.48;;;;;;;6.81;69.49;100592.98;1670485;83;21039;-63
2023/04/09 03:01:22;;;;;;;19.32;10.20;;;;;;;6.82;69.54;100593.38;1648242;84;20992;-62
2023/04/09 03:03:48;;;;;;;18.07;10.50;;;;;;;6.82;69.41;100591.64;1673806;84;21094;-62
2023/04/09 03:06:17;;;;;;;20.32;9.83;;;;;;;6.78;69.38;100592.59;1674338;84;20988;-62
2023/04/09 03:08:43;;;;;;;17.80;10.75;;;;;;;6.74;69.31;100593.52;1668284;84;21154;-62
2023/04/09 03:11:09;;;;;;;20.90;10.95;;;;;;;6.67;69.41;100592.77;1669666;84;21550;-62
2023/04/09 03:13:36;;;;;;;23.67;10.53;;;;;;;6.57;69.29;100589.06;1672006;83;21069;-62
2023/04/09 03:16:02;;;;;;;15.90;10.32;;;;;;;6.52;69.45;100595.61;1636922;85;21086;-62
2023/04/09 03:18:28;;;;;;;18.65;10.20;;;;;;;6.47;69.56;100595.70;1664141;84;21061;-62
2023/04/09 03:20:55;;;;;;;15.93;10.05;;;;;;;6.49;69.53;100596.52;1666910;84;21121;-62
2023/04/09 03:23:21;;;;;;;21.60;9.68;;;;;;;6.50;69.67;100593.06;1664912;84;21090;-62
2023/04/09 03:25:48;;;;;;;18.87;10.40;;;;;;;6.55;69.65;100598.59;1668090;84;21097;-62
2023/04/09 03:28:14;;;;;;;16.02;9.50;;;;;;;6.55;69.66;100589.52;1666167;84;21425;-62
2023/04/09 03:30:40;;;;;;;15.38;8.70;;;;;;;6.58;69.65;100589.05;1662316;84;21534;-62
2023/04/09 03:33:06;;;;;;;17.20;10.05;;;;;;;6.62;69.58;100598.92;1661450;84;20955;-62
2023/04/09 03:35:32;;;;;;;15.83;9.43;;;;;;;6.59;69.68;100593.34;1630407;86;21078;-62
2023/04/09 03:37:59;;;;;;;13.70;8.85;;;;;;;6.61;69.68;100594.59;1637161;85;21151;-62
2023/04/09 03:40:25;;;;;;;15.23;9.23;;;;;;;6.65;69.74;100596.28;1642724;85;21550;-62
2023/04/09 03:42:53;;;;;;;17.82;8.80;;;;;;;6.72;69.80;100596.56;1644328;85;20986;-62
2023/04/09 03:45:23;;;;;;;12.30;8.68;;;;;;;6.71;69.68;100598.77;1617457;87;21055;-62
2023/04/09 03:47:50;;;;;;;14.90;9.20;;;;;;;6.70;69.63;100598.36;1637206;85;21016;-62
2023/04/09 03:50:19;;;;;;;16.15;8.18;;;;;;;6.66;69.52;100597.98;1618963;86;21063;-62
2023/04/09 03:52:47;;;;;;;17.55;9.58;;;;;;;6.64;69.67;100598.02;1645778;85;21031;-62
2023/04/09 03:55:13;;;;;;;15.20;9.40;;;;;;;6.63;69.62;100607.11;1640773;85;21561;-62
2023/04/09 03:57:40;;;;;;;18.50;10.03;;;;;;;6.58;69.48;100599.43;1637506;85;21020;-62
2023/04/09 04:00:08;;;;;;;17.07;10.05;;;;;;;6.53;69.57;100595.20;1638020;85;20995;-62
2023/04/09 04:02:34;;;;;;;14.53;10.10;;;;;;;6.53;69.68;100600.39;1638895;85;21009;-62
2023/04/09 04:05:01;;;;;;;18.80;10.60;;;;;;;6.46;69.65;100601.76;1640922;85;21098;-62
2023/04/09 04:07:28;;;;;;;16.97;10.25;;;;;;;6.41;69.73;100602.30;1640657;85;21960;-62
2023/04/09 04:09:54;;;;;;;17.55;10.45;;;;;;;6.37;69.79;100605.81;1641362;85;21637;-62
2023/04/09 04:12:20;;;;;;;15.28;11.08;;;;;;;6.29;69.66;100603.77;1637877;85;20952;-62
2023/04/09 04:14:46;;;;;;;17.55;11.85;;;;;;;6.24;69.68;100602.98;1651132;85;21058;-62
2023/04/09 04:17:13;;;;;;;16.23;11.70;;;;;;;6.20;69.80;100600.03;1655134;85;21056;-62
2023/04/09 04:19:39;;;;;;;18.07;11.40;;;;;;;6.18;69.80;100606.97;1653993;85;21175;-62
2023/04/09 04:22:05;;;;;;;16.30;10.63;;;;;;;6.19;69.83;100608.26;1685699;83;20972;-62
2023/04/09 04:24:32;;;;;;;16.57;11.03;;;;;;;6.20;69.88;100605.22;1647411;85;21469;-63
2023/04/09 04:26:58;;;;;;;18.98;10.82;;;;;;;6.18;69.78;100605.67;1652463;85;21627;-63
2023/04/09 04:29:27;;;;;;;16.42;10.85;;;;;;;6.12;69.87;100601.44;1649479;84;21592;-62
2023/04/09 04:31:53;;;;;;;16.57;9.90;;;;;;;6.13;69.97;100600.98;1672995;83;21023;-62
2023/04/09 04:34:19;;;;;;;16.87;11.18;;;;;;;6.13;69.99;100606.18;1663902;85;21069;-62
2023/04/09 04:36:47;;;;;;;12.18;8.90;;;;;;;6.13;69.88;100607.47;1660434;85;21002;-63
2023/04/09 04:39:14;;;;;;;16.57;9.20;;;;;;;6.15;70.01;100612.20;1653420;85;21656;-62
2023/04/09 04:41:40;;;;;;;12.93;8.35;;;;;;;6.08;69.65;100604.09;1656479;85;21585;-62
2023/04/09 04:44:07;;;;;;;11.45;7.75;;;;;;;6.00;69.89;100605.08;1658955;84;21102;-62
2023/04/09 04:46:35;;;;;;;15.28;7.35;;;;;;;6.01;69.94;100611.96;1663178;85;21028;-62
2023/04/09 04:49:04;;;;;;;13.60;7.35;;;;;;;5.96;69.79;100611.16;1660414;85;20968;-62
2023/04/09 04:51:32;;;;;;;11.83;6.67;;;;;;;5.93;69.97;100611.62;1661481;85;21489;-62
2023/04/09 04:53:58;;;;;;;12.05;7.58;;;;;;;5.94;69.92;100613.39;1657881;85;21024;-62
2023/04/09 04:56:32;;;;;;;7.97;6.20;;;;;;;5.96;70.01;100608.57;1642576;85;21667;-62
2023/04/09 04:58:59;;;;;;;13.90;6.78;;;;;;;6.00;70.08;100612.85;1649929;84;21088;-63
2023/04/09 05:01:28;;;;;;;9.65;6.65;;;;;;;6.01;70.11;100617.14;1663951;85;20997;-62
2023/04/09 05:03:53;;;;;;;9.93;6.22;;;;;;;6.08;70.21;100619.64;1660672;85;21025;-62
2023/04/09 05:06:20;;;;;;;11.70;5.72;;;;;;;6.14;70.07;100622.17;1665751;84;21020;-62
2023/04/09 05:08:47;;;;;;;12.43;6.45;;;;;;;6.21;70.26;100619.89;1662369;85;21037;-62
2023/04/09 05:11:15;;;;;;;9.38;5.53;;;;;;;6.27;70.13;100620.67;1656879;85;20991;-62
2023/04/09 05:13:41;;;;;;;9.08;5.30;;;;;;;6.33;70.22;100626.20;1668533;84;21499;-62
2023/04/09 05:16:16;;;;;;;10.67;5.57;;;;;;;6.51;70.36;100618.56;1679997;84;21071;-62
2023/04/09 05:18:45;;;;;;;12.07;5.92;;;;;;;6.69;70.48;100623.87;1682263;84;21740;-64
2023/04/09 05:21:13;;;;;;;11.33;5.70;;;;;;;6.81;70.41;100624.13;1680844;84;21068;-63
2023/04/09 05:23:40;;;;;;;14.23;6.00;;;;;;;6.94;70.27;100623.00;1679201;84;21077;-63
2023/04/09 05:26:08;;;;;;;9.93;5.45;;;;;;;7.01;70.07;100627.67;1681021;84;21012;-63
2023/04/09 05:28:34;;;;;;;10.25;5.53;;;;;;;7.08;70.05;100632.70;1676591;84;21554;-63
2023/04/09 05:31:00;;;;;;;11.03;4.83;;;;;;;7.15;70.17;100624.38;1680367;84;20980;-63
2023/04/09 05:33:27;;;;;;;9.18;5.03;;;;;;;7.27;70.10;100628.02;1681571;84;21056;-63
2023/04/09 05:35:53;;;;;;;8.25;5.58;;;;;;;7.33;70.09;100625.30;1679904;84;21578;-63
2023/04/09 05:38:19;;;;;;;6.87;4.33;;;;;;;7.43;70.12;100622.55;1682245;84;21055;-63
2023/04/09 05:40:47;;;;;;;8.35;4.78;;;;;;;7.55;70.25;100624.88;1679032;84;21042;-63
2023/04/09 05:43:16;;;;;;;11.28;4.97;;;;;;;7.75;70.30;100625.31;1683508;84;21042;-63
2023/04/09 05:45:42;;;;;;;9.68;4.90;;;;;;;7.88;70.26;100622.47;1678932;84;21077;-64
2023/04/09 05:48:20;;;;;;;11.60;4.70;;;;;;;8.04;70.18;100617.34;1656524;84;21115;-63
2023/04/09 05:50:41;;;;;;;9.23;5.17;;;;;;;8.16;70.26;100609.70;1673797;84;21583;-64
2023/04/09 05:53:07;;;;;;;8.90;4.83;;;;;;;8.37;70.20;100613.53;1672923;84;20985;-63
2023/04/09 05:55:35;;;;;;;7.65;4.55;;;;;;;8.55;70.08;100607.92;1659042;84;21019;-63
2023/04/09 05:58:06;;;;;;;8.13;4.60;;;;;;;8.78;70.24;100602.58;1675241;84;21668;-64
2023/04/09 06:00:35;;;;;;;7.50;4.17;;;;;;;9.07;70.15;100613.06;1677018;84;21149;-64
2023/04/09 06:03:04;;;;;;;8.63;4.42;;;;;;;9.27;69.98;100610.37;1656888;84;21003;-64
2023/04/09 06:05:30;;;;;;;6.80;4.05;;;;;;;9.43;69.61;100612.11;1676207;84;21042;-63
2023/04/09 06:07:56;;;;;;;10.00;4.87;;;;;;;9.51;69.45;100614.91;1677197;84;21068;-64
2023/04/09 06:10:23;;;;;;;10.38;4.58;;;;;;;9.62;69.52;100616.75;1673196;84;21095;-64
2023/04/09 06:12:52;;;;;;;11.68;4.65;;;;;;;9.75;69.55;100615.11;1678468;84;21645;-64
2023/04/09 06:15:19;;;;;;;7.53;4.33;;;;;;;9.92;69.37;100611.53;1677627;84;21122;-65
2023/04/09 06:17:47;;;;;;;10.65;5.62;;;;;;;10.06;69.52;100612.42;1677590;83;20964;-64
2023/04/09 06:20:14;;;;;;;11.03;5.50;;;;;;;10.21;69.17;100609.77;1670271;84;20977;-64
2023/04/09 06:22:40;;;;;;;14.38;6.50;;;;;;;10.34;69.21;100615.05;1658752;85;20995;-63
2023/04/09 06:25:07;;;;;;;13.25;5.95;;;;;;;10.56;69.29;100616.94;1743695;80;21407;-62
2023/04/09 06:27:33;;;;;;;6.55;4.12;;;;;;;10.76;69.18;100609.31;1743160;80;21021;-61
2023/04/09 06:30:00;;;;;;;9.88;5.10;;;;;;;10.98;69.09;100618.12;1743615;80;20968;-63
2023/04/09 06:32:26;;;;;;;7.17;4.25;;;;;;;11.23;69.06;100614.66;1743097;80;21097;-62
2023/04/09 06:34:55;;;;;;;9.13;4.42;;;;;;;11.41;68.48;100574.75;1745748;80;21037;-64
2023/04/09 06:37:22;;;;;;;7.78;3.87;;;;;;;11.61;68.76;100607.16;1745175;80;20950;-63
2023/04/09 06:39:48;;;;;;;8.15;4.55;;;;;;;11.89;68.47;100614.00;1748031;80;20989;-62
2023/04/09 06:42:14;;;;;;;9.43;4.17;;;;;;;12.05;68.32;100612.50;1754971;80;21681;-62
2023/04/09 06:44:40;;;;;;;7.00;3.70;;;;;;;12.38;68.16;100618.59;1749110;80;20995;-64
2023/04/09 06:47:07;;;;;;;8.25;3.77;;;;;;;12.67;67.51;100616.95;1752112;80;21012;-65
2023/04/09 06:49:33;;;;;;;5.30;3.22;;;;;;;12.84;67.71;100614.09;1748192;80;20943;-66
2023/04/09 06:52:00;;;;;;;6.42;3.62;;;;;;;13.09;67.27;100610.80;1745592;80;20963;-62
2023/04/09 06:54:26;;;;;;;6.12;3.50;;;;;;;13.34;67.02;100620.25;1747345;80;21073;-64
2023/04/09 06:56:55;;;;;;;5.97;3.25;;;;;;;13.44;66.51;100621.53;1751715;80;21516;-63
2023/04/09 06:59:21;;;;;;;6.40;3.47;;;;;;;13.52;66.45;100616.79;1748389;80;20959;-64
2023/04/09 07:01:48;;;;;;;7.95;3.58;;;;;;;13.61;66.14;100617.70;1743367;80;20942;-62
2023/04/09 07:04:17;;;;;;;6.17;4.17;;;;;;;13.55;65.34;100612.71;1745650;80;21027;-65
2023/04/09 07:06:44;;;;;;;6.87;4.05;;;;;;;13.54;65.95;100614.95;1745427;80;21232;-64
2023/04/09 07:09:14;;;;;;;7.65;3.98;;;;;;;13.74;65.44;100610.11;1742173;80;21635;-66
2023/04/09 07:11:43;;;;;;;4.80;3.62;;;;;;;14.07;65.30;100612.92;1749343;79;21002;-69
2023/04/09 07:14:09;;;;;;;5.92;3.70;;;;;;;14.45;65.35;100614.18;1743955;80;21667;-63
2023/04/09 07:16:36;;;;;;;6.17;3.70;;;;;;;14.95;65.74;100614.73;1745672;80;21417;-64
2023/04/09 07:19:02;;;;;;;6.35;3.70;;;;;;;15.35;65.46;100610.53;1709740;80;21066;-64
2023/04/09 07:21:31;;;;;;;5.47;3.35;;;;;;;15.77;64.51;100615.30;1746797;80;22089;-63
2023/04/09 07:23:57;;;;;;;6.92;3.60;;;;;;;16.26;64.67;100612.55;1747533;80;21010;-63
2023/04/09 07:26:24;;;;;;;5.40;3.00;;;;;;;16.95;64.91;100613.00;1741629;80;20981;-63
2023/04/09 07:28:50;;;;;;;5.12;3.17;;;;;;;17.40;63.94;100612.00;1747968;81;21061;-63
2023/04/09 07:31:16;;;;;;;5.35;2.85;;;;;;;17.64;63.37;100613.61;1748530;80;20979;-64
2023/04/09 07:33:44;;;;;;;5.30;3.23;;;;;;;17.87;63.23;100611.34;1747418;80;21029;-64
2023/04/09 07:36:13;;;;;;;5.58;2.90;;;;;;;17.71;62.15;100614.53;1747524;80;21017;-63
2023/04/09 07:38:56;;;;;;;5.53;3.05;;;;;;;17.75;62.65;100614.70;1746227;80;21512;-64
2023/04/09 07:41:11;;;;;;;7.05;3.58;;;;;;;17.91;62.20;100618.59;1733274;80;21066;-63
2023/04/09 07:43:47;;;;;;;6.55;3.50;;;;;;;17.98;61.63;100615.91;1735853;80;21079;-64
2023/04/09 07:46:08;;;;;;;4.65;2.70;;;;;;;17.83;60.67;100617.75;1698921;81;21205;-65
2023/04/09 07:48:36;;;;;;;5.08;2.67;;;;;;;17.72;60.53;100613.58;1693642;83;21050;-65
2023/04/09 07:51:05;;;;;;;7.33;3.27;;;;;;;17.72;60.68;100616.22;1669527;82;21524;-65
2023/04/09 07:53:35;;;;;;;6.60;3.62;;;;;;;17.58;59.51;100613.96;1693603;83;21569;-64
2023/04/09 07:56:01;;;;;;;5.30;3.22;;;;;;;17.20;59.48;100626.42;1740216;80;21289;-64
2023/04/09 07:58:27;;;;;;;9.10;3.83;;;;;;;17.19;59.57;100624.70;1747525;80;21010;-63
2023/04/09 08:00:56;;;;;;;5.28;2.75;;;;;;;17.22;58.59;100624.55;1741689;80;21002;-63
2023/04/09 08:03:22;;;;;;;7.47;3.22;;;;;;;17.22;59.10;100623.22;1747577;80;21064;-64
2023/04/09 08:05:52;;;;;;;8.63;3.07;;;;;;;17.40;59.29;100629.64;1720422;80;20978;-64
2023/04/09 08:08:20;;;;;;;5.20;3.27;;;;;;;17.49;58.67;100626.42;1752025;80;21064;-63
2023/04/09 08:10:47;;;;;;;8.33;2.85;;;;;;;17.47;57.47;100633.58;1756107;80;20986;-63
2023/04/09 08:13:13;;;;;;;5.05;2.83;;;;;;;17.57;57.59;100633.41;1749589;80;20998;-63
2023/04/09 08:15:41;;;;;;;5.65;2.98;;;;;;;17.55;57.80;100636.60;1754477;80;21046;-63
2023/04/09 08:18:08;;;;;;;5.97;3.12;;;;;;;17.56;57.42;100634.36;1752556;79;21494;-63
2023/04/09 08:20:34;;;;;;;9.55;3.47;;;;;;;17.81;57.67;100629.75;1750120;80;21026;-62
2023/04/09 08:23:03;;;;;;;5.83;3.10;;;;;;;17.98;56.38;100627.36;1755501;80;20977;-63
2023/04/09 08:25:30;;;;;;;5.92;3.35;;;;;;;18.44;57.57;100636.27;1754157;80;21046;-63
2023/04/09 08:27:59;;;;;;;5.45;3.20;;;;;;;18.72;56.01;100629.15;1742069;80;21046;-63
2023/04/09 08:30:25;;;;;;;6.15;3.50;;;;;;;18.93;55.93;100633.05;1745188;80;21014;-64
2023/04/09 08:32:52;;;;;;;5.80;3.60;;;;;;;19.26;56.07;100631.66;1742157;80;21030;-64
2023/04/09 08:35:18;;;;;;;6.65;3.12;;;;;;;19.87;56.05;100635.33;1748378;80;21058;-63
2023/04/09 08:37:46;;;;;;;6.30;3.12;;;;;;;20.37;54.84;100639.73;1710752;80;21065;-63
2023/04/09 08:40:13;;;;;;;8.43;3.10;;;;;;;20.61;55.07;100629.97;1743624;80;21045;-63
2023/04/09 08:42:48;;;;;;;7.12;2.98;;;;;;;21.14;55.63;100633.00;1748721;79;20981;-63
2023/04/09 08:45:19;;;;;;;5.80;2.92;;;;;;;21.67;54.87;100627.99;1745023;79;21009;-63
2023/04/09 08:47:46;;;;;;;5.92;2.98;;;;;;;22.65;55.34;100631.16;1742992;80;21729;-63
2023/04/09 08:50:14;;;;;;;5.25;2.67;;;;;;;23.10;53.90;100623.44;1698231;82;21066;-63
2023/04/09 08:52:41;;;;;;;4.75;2.72;;;;;;;23.61;54.10;100627.88;1661145;84;21078;-63
2023/04/09 08:55:10;;;;;;;5.83;3.50;;;;;;;24.03;52.97;100625.09;1738627;80;21121;-63
2023/04/09 08:57:40;;;;;;;5.47;3.12;;;;;;;24.89;54.31;100622.62;1737650;80;21032;-64
2023/04/09 09:00:08;;;;;;;7.22;3.30;;;;;;;26.34;53.69;100618.48;1736677;80;21535;-63
2023/04/09 09:02:35;;;;;;;8.10;3.45;;;;;;;27.01;52.55;100613.53;1745092;80;21085;-63
2023/04/09 09:05:15;;;;;;;6.87;3.70;;;;;;;27.31;52.08;100622.10;1660578;80;51568;-64
2023/04/09 09:07:47;;;;;;;6.35;3.17;;;;;;;27.96;51.69;100616.22;1661505;84;21077;-62
2023/04/09 09:10:15;;;;;;;7.10;3.27;;;;;;;28.76;51.31;100613.31;1662609;84;21587;-61
2023/04/09 09:12:41;;;;;;;5.42;3.47;;;;;;;29.42;50.48;100609.16;1658767;84;21113;-61
2023/04/09 09:15:29;;;;;;;5.30;3.15;;;;;;;29.81;47.26;100605.66;1632447;85;21094;-61
2023/04/09 09:17:58;;;;;;;6.15;3.10;;;;;;;29.58;46.64;100609.09;1666009;84;22419;-61
2023/04/09 09:20:26;;;;;;;3.70;2.40;;;;;;;29.13;47.08;100613.28;1667351;85;21052;-61
2023/04/09 09:22:54;;;;;;;6.25;2.65;;;;;;;29.47;46.99;100612.17;1635030;86;21075;-61
2023/04/09 09:25:24;;;;;;;6.72;2.60;;;;;;;29.11;45.37;100609.92;1632807;86;21511;-61
2023/04/09 09:27:51;;;;;;;6.22;2.37;;;;;;;28.31;44.79;100617.27;1635002;86;20980;-61
2023/04/09 09:30:26;;;;;;;4.42;2.70;;;;;;;28.38;45.03;100617.97;1634553;86;20981;-62
2023/04/09 09:32:55;;;;;;;8.18;2.80;;;;;;;28.81;44.21;100614.64;1634174;86;21020;-61
2023/04/09 09:35:22;;;;;;;5.65;2.83;;;;;;;29.36;43.90;100612.55;1632544;86;21130;-61
2023/04/09 09:37:53;;;;;;;5.87;3.20;;;;;;;30.10;43.77;100613.87;1630906;86;21068;-61
2023/04/09 09:40:29;;;;;;;4.58;2.33;;;;;;;31.10;42.96;100602.67;1605211;86;21682;-61
2023/04/09 09:42:57;;;;;;;5.97;3.10;;;;;;;31.48;41.86;100609.33;1631464;86;21454;-61
2023/04/09 09:45:23;;;;;;;3.92;2.40;;;;;;;31.38;40.07;100607.77;1637703;86;21024;-61
2023/04/09 09:47:50;;;;;;;5.25;2.35;;;;;;;30.79;40.00;100604.97;1637674;86;21110;-61
2023/04/09 09:50:16;;;;;;;4.10;2.47;;;;;;;30.65;39.65;100605.77;1635982;86;21048;-61
2023/04/09 09:52:45;;;;;;;3.95;2.12;;;;;;;30.41;39.41;100607.63;1635875;86;21119;-61
2023/04/09 09:55:17;;;;;;;3.30;2.00;;;;;;;30.52;39.00;100598.29;1638334;86;21059;-61
2023/04/09 09:57:44;;;;;;;3.58;2.08;;;;;;;30.41;37.95;100602.24;1639119;85;21686;-61
2023/04/09 10:00:24;;;;;;;4.20;1.67;;;;;;;30.13;37.58;100606.47;1639411;86;21079;-61
2023/04/09 10:02:55;;;;;;;2.83;1.62;;;;;;;29.29;35.52;100608.86;1642444;86;21139;-61
2023/04/09 10:05:25;;;;;;;5.97;2.02;;;;;;;27.46;34.83;100604.43;1633084;86;21468;-61
2023/04/09 10:08:01;;;;;;;4.75;1.87;;;;;;;25.66;34.06;100607.70;1639538;86;20967;-61
2023/04/09 10:10:28;;;;;;;5.75;1.87;;;;;;;23.52;33.18;100608.21;1634720;86;21519;-60
2023/04/09 10:12:55;;;;;;;2.22;1.70;;;;;;;22.04;34.24;100609.11;1634467;86;21103;-60
2023/04/09 10:15:27;;;;;;;5.15;1.85;;;;;;;21.43;34.33;100615.34;1636953;85;21125;-60
2023/04/09 10:17:54;;;;;;;3.15;1.80;;;;;;;22.21;34.64;100606.89;1643370;85;21003;-60
2023/04/09 10:20:30;;;;;;;4.95;2.30;;;;;;;22.82;34.27;100607.11;1643569;85;21105;-60
2023/04/09 10:23:00;;;;;;;4.92;1.72;;;;;;;22.89;33.99;100604.30;1640565;85;21469;-61
2023/04/09 10:25:27;;;;;;;3.60;1.67;;;;;;;23.41;33.89;100610.51;1640239;85;21499;-60
2023/04/09 10:28:02;;;;;;;3.35;1.90;;;;;;;22.97;33.25;100611.67;1640098;85;20994;-60
2023/04/09 10:30:36;;;;;;;5.20;2.12;;;;;;;22.84;33.32;100613.16;1639635;85;21651;-61
2023/04/09 10:33:10;;;;;;;3.80;1.70;;;;;;;22.88;33.56;100621.26;1641621;85;21173;-64
2023/04/09 10:35:36;;;;;;;2.70;2.15;;;;;;;22.89;33.43;100617.61;1642925;85;20977;-63
2023/04/09 10:38:04;;;;;;;2.37;1.60;;;;;;;22.95;33.14;100616.25;1644391;85;21523;-64
2023/04/09 10:40:31;;;;;;;3.67;1.72;;;;;;;23.22;32.84;100617.08;1639180;85;21068;-63
2023/04/09 10:43:01;;;;;;;3.05;1.50;;;;;;;23.26;33.44;100617.16;1634942;85;21045;-63
2023/04/09 10:45:37;;;;;;;2.52;1.70;;;;;;;23.38;32.59;100608.08;1644292;85;21033;-63
2023/04/09 10:48:04;;;;;;;2.40;1.87;;;;;;;23.45;33.11;100617.73;1641874;85;21084;-64
2023/04/09 10:50:36;;;;;;;3.55;1.40;;;;;;;22.62;31.84;100617.27;1646413;85;21022;-64
2023/04/09 10:53:03;;;;;;;2.95;1.60;;;;;;;21.11;32.32;100617.31;1647292;85;21041;-64
2023/04/09 10:55:43;;;;;;;3.52;1.90;;;;;;;21.24;32.81;100618.06;1643763;85;21035;-61
2023/04/09 10:58:13;;;;;;;1.92;1.35;;;;;;;21.43;32.97;100621.98;1644195;85;21111;-59
2023/04/09 11:00:48;;;;;;;4.40;1.40;;;;;;;21.57;32.62;100618.24;1645949;85;21049;-59
2023/04/09 11:03:29;;;;;;;2.50;1.60;;;;;;;21.61;32.55;100615.20;1646633;85;21719;-59
2023/04/09 11:06:07;;;;;;;2.25;1.27;;;;;;;21.77;32.13;100613.99;1639658;86;20996;-61
2023/04/09 11:08:33;;;;;;;2.15;1.30;;;;;;;21.97;32.23;100611.05;1645202;85;21077;-59
2023/04/09 11:11:00;;;;;;;4.53;1.50;;;;;;;22.21;31.59;100606.89;1636803;85;21020;-59
2023/04/09 11:13:30;;;;;;;3.02;1.40;;;;;;;21.93;31.91;100609.14;1649169;85;21036;-59
2023/04/09 11:15:58;;;;;;;6.37;1.40;;;;;;;22.42;32.49;100618.44;1640548;85;21086;-58
2023/04/09 11:18:29;;;;;;;2.05;1.40;;;;;;;22.74;32.33;100610.91;1627874;86;21461;-59
2023/04/09 11:20:58;;;;;;;2.70;1.50;;;;;;;23.33;31.74;100609.00;1645567;85;21521;-60
2023/04/09 11:23:25;;;;;;;1.50;1.07;;;;;;;23.64;31.55;100611.64;1639121;85;21561;-60
2023/04/09 11:25:54;;;;;;;1.82;1.27;;;;;;;22.75;31.00;100616.11;1644049;85;21078;-60
2023/04/09 11:28:23;;;;;;;1.95;1.10;;;;;;;22.84;31.85;100617.64;1638575;85;21086;-60
2023/04/09 11:30:53;;;;;;;2.50;1.45;;;;;;;23.20;31.45;100619.86;1645403;85;21033;-60
2023/04/09 11:33:25;;;;;;;3.00;2.00;;;;;;;22.78;30.88;100617.67;1618127;86;21038;-60